RYR8870 DTTA-LICC
Flight info
| Callsign | RYR8870 |
|---|---|
| Flight time | 0h 47m |
| Altitude | 23000 |
| Route | CBN3A CBN G728 TUPAL/N0402F220 DCT PIVOP DCT LIBRO |
| Aircraft | B38M/M-SDE1FGHILORVWXY/HB1 |
Departure
| Time | 2026-05-08 01:03 |
|---|---|
| Airport | Tunis Carthage International Airport (DTTA) |
Arrival
| Time | 2026-05-08 01:50 |
|---|---|
| Airport | Catania-Fontanarossa Airport (LICC) |
| Time | Latitude | Longitude | Altitude | Speed | Heading |
|---|---|---|---|---|---|
| 2026-05-08 00:03 | 36.84532 | 10.21964 | 24 ft | 0 kts | 322° |
| 2026-05-08 00:04 | 36.84642 | 10.22003 | 26 ft | 0 kts | 247° |
| 2026-05-08 00:55 | 36.84645 | 10.22012 | 25 ft | 4 kts | 247° |
| 2026-05-08 00:55 | 36.84656 | 10.22042 | 29 ft | 4 kts | 244° |
| 2026-05-08 00:55 | 36.84670 | 10.22070 | 29 ft | 4 kts | 228° |
| 2026-05-08 00:55 | 36.84690 | 10.22089 | 29 ft | 4 kts | 192° |
| 2026-05-08 00:56 | 36.84707 | 10.22086 | 27 ft | 1 kts | 146° |
| 2026-05-08 00:56 | 36.84710 | 10.22083 | 27 ft | 0 kts | 146° |
| 2026-05-08 00:58 | 36.84698 | 10.22094 | 27 ft | 4 kts | 146° |
| 2026-05-08 00:59 | 36.84661 | 10.22108 | 29 ft | 7 kts | 179° |
| 2026-05-08 00:59 | 36.84600 | 10.22099 | 24 ft | 10 kts | 192° |
| 2026-05-08 00:59 | 36.84521 | 10.22103 | 25 ft | 13 kts | 141° |
| 2026-05-08 00:59 | 36.84483 | 10.22216 | 24 ft | 15 kts | 126° |
| 2026-05-08 01:00 | 36.84396 | 10.22228 | 24 ft | 13 kts | 194° |
| 2026-05-08 01:00 | 36.84301 | 10.22204 | 22 ft | 15 kts | 192° |
| 2026-05-08 01:00 | 36.84187 | 10.22173 | 21 ft | 18 kts | 193° |
| 2026-05-08 01:00 | 36.84053 | 10.22135 | 20 ft | 21 kts | 193° |
| 2026-05-08 01:01 | 36.83911 | 10.22101 | 19 ft | 18 kts | 175° |
| 2026-05-08 01:01 | 36.83875 | 10.22226 | 20 ft | 19 kts | 72° |
| 2026-05-08 01:01 | 36.83957 | 10.22360 | 19 ft | 21 kts | 36° |
| 2026-05-08 01:01 | 36.84095 | 10.22425 | 20 ft | 23 kts | 12° |
| 2026-05-08 01:02 | 36.84262 | 10.22471 | 20 ft | 29 kts | 13° |
| 2026-05-08 01:02 | 36.84664 | 10.22582 | 24 ft | 96 kts | 12° |
| 2026-05-08 01:02 | 36.85543 | 10.22811 | 33 ft | 158 kts | 10° |
| 2026-05-08 01:02 | 36.86710 | 10.23031 | 476 ft | 178 kts | 4° |
| 2026-05-08 01:03 | 36.88012 | 10.23360 | 918 ft | 202 kts | 22° |
| 2026-05-08 01:03 | 36.89225 | 10.24314 | 1677 ft | 201 kts | 60° |
| 2026-05-08 01:03 | 36.89724 | 10.25901 | 2596 ft | 206 kts | 78° |
| 2026-05-08 01:03 | 36.90451 | 10.27569 | 3194 ft | 235 kts | 50° |
| 2026-05-08 01:04 | 36.91603 | 10.29157 | 3831 ft | 257 kts | 47° |
| 2026-05-08 01:04 | 36.92863 | 10.30880 | 4538 ft | 277 kts | 49° |
| 2026-05-08 01:04 | 36.93971 | 10.32949 | 5232 ft | 298 kts | 66° |
| 2026-05-08 01:04 | 36.94374 | 10.35458 | 6052 ft | 303 kts | 95° |
| 2026-05-08 01:05 | 36.93909 | 10.38075 | 6500 ft | 303 kts | 119° |
| 2026-05-08 01:05 | 36.93012 | 10.40467 | 6628 ft | 308 kts | 110° |
| 2026-05-08 01:05 | 36.92743 | 10.43141 | 6821 ft | 314 kts | 95° |
| 2026-05-08 01:05 | 36.92593 | 10.45825 | 7759 ft | 312 kts | 96° |
| 2026-05-08 01:06 | 36.92429 | 10.48551 | 8729 ft | 318 kts | 96° |
| 2026-05-08 01:06 | 36.92261 | 10.51335 | 9682 ft | 324 kts | 96° |
| 2026-05-08 01:06 | 36.92089 | 10.54175 | 10472 ft | 333 kts | 96° |
| 2026-05-08 01:06 | 36.91909 | 10.57149 | 10965 ft | 353 kts | 96° |
| 2026-05-08 01:07 | 36.91717 | 10.60294 | 11453 ft | 371 kts | 96° |
| 2026-05-08 01:07 | 36.91518 | 10.63555 | 12071 ft | 383 kts | 97° |
| 2026-05-08 01:07 | 36.91326 | 10.66877 | 12898 ft | 387 kts | 95° |
| 2026-05-08 01:07 | 36.91193 | 10.70215 | 13703 ft | 394 kts | 95° |
| 2026-05-08 01:08 | 36.91053 | 10.73663 | 14449 ft | 399 kts | 95° |
| 2026-05-08 01:08 | 36.90907 | 10.77146 | 15234 ft | 403 kts | 95° |
| 2026-05-08 01:08 | 36.90757 | 10.80665 | 15982 ft | 408 kts | 95° |
| 2026-05-08 01:08 | 36.90606 | 10.84179 | 16725 ft | 412 kts | 95° |
| 2026-05-08 01:09 | 36.90451 | 10.87776 | 17448 ft | 417 kts | 95° |
| 2026-05-08 01:09 | 36.90292 | 10.91408 | 18167 ft | 422 kts | 95° |
| 2026-05-08 01:09 | 36.90131 | 10.95087 | 18787 ft | 426 kts | 95° |
| 2026-05-08 01:09 | 36.89966 | 10.98796 | 19427 ft | 428 kts | 95° |
| 2026-05-08 01:10 | 36.89801 | 11.02529 | 20065 ft | 432 kts | 95° |
| 2026-05-08 01:10 | 36.89973 | 11.06289 | 20663 ft | 437 kts | 78° |
| 2026-05-08 01:10 | 36.90959 | 11.09885 | 21278 ft | 439 kts | 61° |
| 2026-05-08 01:10 | 36.92674 | 11.13031 | 21847 ft | 438 kts | 46° |
| 2026-05-08 01:11 | 36.94676 | 11.15939 | 22424 ft | 442 kts | 46° |
| 2026-05-08 01:11 | 36.96718 | 11.18856 | 22863 ft | 448 kts | 46° |
| 2026-05-08 01:11 | 36.98807 | 11.21804 | 22927 ft | 460 kts | 45° |
| 2026-05-08 01:11 | 37.00973 | 11.24841 | 22905 ft | 473 kts | 45° |
| 2026-05-08 01:12 | 37.03161 | 11.27903 | 22906 ft | 481 kts | 45° |
| 2026-05-08 01:12 | 37.05399 | 11.31033 | 22901 ft | 483 kts | 45° |
| 2026-05-08 01:12 | 37.07645 | 11.34177 | 22913 ft | 485 kts | 45° |
| 2026-05-08 01:12 | 37.09887 | 11.37317 | 22920 ft | 485 kts | 45° |
| 2026-05-08 01:13 | 37.12147 | 11.40488 | 22917 ft | 485 kts | 45° |
| 2026-05-08 01:13 | 37.14400 | 11.43650 | 22916 ft | 486 kts | 45° |
| 2026-05-08 01:13 | 37.16634 | 11.46811 | 22936 ft | 486 kts | 48° |
| 2026-05-08 01:13 | 37.18466 | 11.50331 | 22895 ft | 486 kts | 64° |
| 2026-05-08 01:14 | 37.19563 | 11.54335 | 22928 ft | 486 kts | 75° |
| 2026-05-08 01:14 | 37.20410 | 11.58444 | 22911 ft | 486 kts | 76° |
| 2026-05-08 01:14 | 37.21216 | 11.62564 | 22916 ft | 486 kts | 77° |
| 2026-05-08 01:14 | 37.21989 | 11.66642 | 22917 ft | 486 kts | 77° |
| 2026-05-08 01:15 | 37.22765 | 11.70820 | 22914 ft | 487 kts | 77° |
| 2026-05-08 01:15 | 37.23518 | 11.74912 | 22921 ft | 487 kts | 77° |
| 2026-05-08 01:15 | 37.24278 | 11.79054 | 22920 ft | 487 kts | 78° |
| 2026-05-08 01:15 | 37.25037 | 11.83204 | 22918 ft | 487 kts | 78° |
| 2026-05-08 01:16 | 37.25794 | 11.87349 | 22916 ft | 487 kts | 78° |
| 2026-05-08 01:16 | 37.26551 | 11.91504 | 22919 ft | 487 kts | 78° |
| 2026-05-08 01:16 | 37.27306 | 11.95654 | 22917 ft | 487 kts | 78° |
| 2026-05-08 01:16 | 37.28059 | 11.99806 | 22915 ft | 487 kts | 78° |
| 2026-05-08 01:17 | 37.28811 | 12.03960 | 22920 ft | 487 kts | 78° |
| 2026-05-08 01:17 | 37.29561 | 12.08110 | 22908 ft | 488 kts | 78° |
| 2026-05-08 01:17 | 37.30312 | 12.12275 | 22916 ft | 489 kts | 78° |
| 2026-05-08 01:17 | 37.31061 | 12.16440 | 22916 ft | 489 kts | 78° |
| 2026-05-08 01:18 | 37.31810 | 12.20610 | 22916 ft | 489 kts | 78° |
| 2026-05-08 01:18 | 37.32546 | 12.24715 | 22931 ft | 487 kts | 78° |
| 2026-05-08 01:18 | 37.33287 | 12.28863 | 22918 ft | 486 kts | 78° |
| 2026-05-08 01:18 | 37.34035 | 12.33058 | 22914 ft | 486 kts | 78° |
| 2026-05-08 01:19 | 37.34765 | 12.37157 | 22914 ft | 485 kts | 78° |
| 2026-05-08 01:19 | 37.35500 | 12.41298 | 22902 ft | 485 kts | 78° |
| 2026-05-08 01:19 | 37.36234 | 12.45443 | 22912 ft | 487 kts | 78° |
| 2026-05-08 01:19 | 37.36970 | 12.49605 | 22917 ft | 487 kts | 78° |
| 2026-05-08 01:20 | 37.37706 | 12.53772 | 22915 ft | 487 kts | 78° |
| 2026-05-08 01:20 | 37.38437 | 12.57929 | 22913 ft | 487 kts | 78° |
| 2026-05-08 01:20 | 37.39169 | 12.62094 | 22914 ft | 487 kts | 78° |
| 2026-05-08 01:20 | 37.39899 | 12.66256 | 22914 ft | 487 kts | 78° |
| 2026-05-08 01:21 | 37.40628 | 12.70425 | 22913 ft | 488 kts | 78° |
| 2026-05-08 01:21 | 37.41351 | 12.74571 | 22914 ft | 487 kts | 78° |
| 2026-05-08 01:21 | 37.42082 | 12.78767 | 22900 ft | 488 kts | 79° |
| 2026-05-08 01:21 | 37.42807 | 12.82941 | 22911 ft | 490 kts | 79° |
| 2026-05-08 01:22 | 37.43532 | 12.87124 | 22908 ft | 490 kts | 79° |
| 2026-05-08 01:22 | 37.44258 | 12.91316 | 22911 ft | 490 kts | 79° |
| 2026-05-08 01:22 | 37.44981 | 12.95506 | 22919 ft | 490 kts | 79° |
| 2026-05-08 01:22 | 37.45693 | 12.99644 | 22919 ft | 490 kts | 79° |
| 2026-05-08 01:23 | 37.46414 | 13.03839 | 22919 ft | 490 kts | 79° |
| 2026-05-08 01:23 | 37.47133 | 13.08022 | 22938 ft | 488 kts | 79° |
| 2026-05-08 01:23 | 37.47846 | 13.12188 | 22927 ft | 487 kts | 79° |
| 2026-05-08 01:23 | 37.48558 | 13.16358 | 22906 ft | 488 kts | 79° |
| 2026-05-08 01:24 | 37.49097 | 13.20575 | 22926 ft | 488 kts | 85° |
| 2026-05-08 01:24 | 37.49518 | 13.24813 | 22928 ft | 488 kts | 84° |
| 2026-05-08 01:24 | 37.49961 | 13.29047 | 22926 ft | 488 kts | 84° |
| 2026-05-08 01:24 | 37.50416 | 13.33288 | 22924 ft | 488 kts | 84° |
| 2026-05-08 01:25 | 37.50874 | 13.37526 | 22923 ft | 488 kts | 84° |
| 2026-05-08 01:25 | 37.51332 | 13.41765 | 22929 ft | 489 kts | 84° |
| 2026-05-08 01:25 | 37.51788 | 13.46011 | 22923 ft | 488 kts | 84° |
| 2026-05-08 01:25 | 37.52242 | 13.50244 | 22928 ft | 488 kts | 84° |
| 2026-05-08 01:26 | 37.52695 | 13.54487 | 22897 ft | 489 kts | 84° |
| 2026-05-08 01:26 | 37.53145 | 13.58711 | 22194 ft | 486 kts | 84° |
| 2026-05-08 01:26 | 37.53592 | 13.62916 | 21606 ft | 482 kts | 84° |
| 2026-05-08 01:26 | 37.54032 | 13.67074 | 21055 ft | 476 kts | 84° |
| 2026-05-08 01:27 | 37.54467 | 13.71198 | 20487 ft | 473 kts | 84° |
| 2026-05-08 01:27 | 37.54897 | 13.75291 | 19903 ft | 469 kts | 84° |
| 2026-05-08 01:27 | 37.55178 | 13.77982 | 19542 ft | 467 kts | 84° |
| 2026-05-08 01:27 | 37.55743 | 13.83389 | 18812 ft | 463 kts | 84° |
| 2026-05-08 01:28 | 37.56157 | 13.87369 | 18246 ft | 462 kts | 84° |
| 2026-05-08 01:28 | 37.56572 | 13.91373 | 17636 ft | 460 kts | 84° |
| 2026-05-08 01:28 | 37.56983 | 13.95361 | 17080 ft | 456 kts | 84° |
| 2026-05-08 01:28 | 37.57390 | 13.99312 | 16555 ft | 453 kts | 84° |
| 2026-05-08 01:29 | 37.57792 | 14.03228 | 16019 ft | 450 kts | 84° |
| 2026-05-08 01:29 | 37.58056 | 14.05805 | 15697 ft | 447 kts | 84° |
| 2026-05-08 01:29 | 37.58452 | 14.09689 | 15184 ft | 445 kts | 84° |
| 2026-05-08 01:29 | 37.58844 | 14.13538 | 14672 ft | 441 kts | 84° |
| 2026-05-08 01:30 | 37.59231 | 14.17360 | 14190 ft | 438 kts | 84° |
| 2026-05-08 01:30 | 37.59616 | 14.21166 | 13659 ft | 437 kts | 84° |
| 2026-05-08 01:30 | 37.59998 | 14.24956 | 13112 ft | 434 kts | 84° |
| 2026-05-08 01:30 | 37.60376 | 14.28725 | 12622 ft | 430 kts | 84° |
| 2026-05-08 01:31 | 37.60745 | 14.32416 | 12430 ft | 418 kts | 84° |
| 2026-05-08 01:31 | 37.61104 | 14.36010 | 12286 ft | 406 kts | 84° |
| 2026-05-08 01:31 | 37.61451 | 14.39492 | 12111 ft | 396 kts | 84° |
| 2026-05-08 01:31 | 37.61785 | 14.42860 | 11931 ft | 387 kts | 84° |
| 2026-05-08 01:32 | 37.62110 | 14.46191 | 11759 ft | 378 kts | 86° |
| 2026-05-08 01:32 | 37.62336 | 14.49458 | 11582 ft | 369 kts | 86° |
| 2026-05-08 01:32 | 37.62554 | 14.52637 | 11436 ft | 359 kts | 86° |
| 2026-05-08 01:32 | 37.62771 | 14.55744 | 11293 ft | 350 kts | 86° |
| 2026-05-08 01:33 | 37.62983 | 14.58768 | 11144 ft | 341 kts | 86° |
| 2026-05-08 01:33 | 37.63191 | 14.61716 | 11014 ft | 333 kts | 86° |
| 2026-05-08 01:33 | 37.63389 | 14.64591 | 10793 ft | 327 kts | 87° |
| 2026-05-08 01:33 | 37.63578 | 14.67432 | 10528 ft | 324 kts | 88° |
| 2026-05-08 01:34 | 37.63320 | 14.70203 | 10201 ft | 314 kts | 116° |
| 2026-05-08 01:34 | 37.62178 | 14.72436 | 9917 ft | 297 kts | 144° |
| 2026-05-08 01:34 | 37.60511 | 14.73725 | 9650 ft | 277 kts | 169° |
| 2026-05-08 01:34 | 37.58682 | 14.74240 | 9414 ft | 266 kts | 178° |
| 2026-05-08 01:35 | 37.56873 | 14.74526 | 9150 ft | 254 kts | 191° |
| 2026-05-08 01:35 | 37.55275 | 14.73867 | 8855 ft | 235 kts | 221° |
| 2026-05-08 01:35 | 37.54259 | 14.72361 | 8633 ft | 222 kts | 246° |
| 2026-05-08 01:35 | 37.53864 | 14.70520 | 8456 ft | 215 kts | 259° |
| 2026-05-08 01:36 | 37.53632 | 14.68689 | 8289 ft | 209 kts | 260° |
| 2026-05-08 01:36 | 37.53427 | 14.66902 | 8099 ft | 204 kts | 261° |
| 2026-05-08 01:36 | 37.53241 | 14.65130 | 7922 ft | 205 kts | 261° |
| 2026-05-08 01:36 | 37.53064 | 14.63353 | 7804 ft | 205 kts | 261° |
| 2026-05-08 01:37 | 37.52900 | 14.61641 | 7782 ft | 193 kts | 261° |
| 2026-05-08 01:37 | 37.52747 | 14.60007 | 7679 ft | 184 kts | 261° |
| 2026-05-08 01:37 | 37.52604 | 14.58441 | 7557 ft | 177 kts | 261° |
| 2026-05-08 01:37 | 37.52464 | 14.56892 | 7469 ft | 178 kts | 261° |
| 2026-05-08 01:38 | 37.52325 | 14.55337 | 7382 ft | 179 kts | 262° |
| 2026-05-08 01:38 | 37.52187 | 14.53779 | 7297 ft | 178 kts | 261° |
| 2026-05-08 01:38 | 37.52047 | 14.52222 | 7232 ft | 179 kts | 261° |
| 2026-05-08 01:38 | 37.51908 | 14.50666 | 7138 ft | 179 kts | 261° |
| 2026-05-08 01:39 | 37.51769 | 14.49111 | 7041 ft | 178 kts | 261° |
| 2026-05-08 01:39 | 37.51631 | 14.47559 | 6953 ft | 178 kts | 261° |
| 2026-05-08 01:39 | 37.51423 | 14.46028 | 6849 ft | 177 kts | 247° |
| 2026-05-08 01:39 | 37.50656 | 14.44841 | 6711 ft | 180 kts | 218° |
| 2026-05-08 01:40 | 37.49463 | 14.44338 | 6600 ft | 191 kts | 189° |
| 2026-05-08 01:40 | 37.48114 | 14.44470 | 6559 ft | 197 kts | 182° |
| 2026-05-08 01:40 | 37.46752 | 14.44650 | 6541 ft | 197 kts | 182° |
| 2026-05-08 01:40 | 37.45386 | 14.44836 | 6515 ft | 198 kts | 182° |
| 2026-05-08 01:41 | 37.44021 | 14.45025 | 6435 ft | 197 kts | 182° |
| 2026-05-08 01:41 | 37.42695 | 14.45597 | 6267 ft | 212 kts | 152° |
| 2026-05-08 01:41 | 37.41764 | 14.47095 | 6081 ft | 228 kts | 116° |
| 2026-05-08 01:41 | 37.41617 | 14.49102 | 5985 ft | 236 kts | 85° |
| 2026-05-08 01:42 | 37.41833 | 14.51133 | 5911 ft | 238 kts | 85° |
| 2026-05-08 01:42 | 37.42034 | 14.53196 | 5810 ft | 237 kts | 86° |
| 2026-05-08 01:42 | 37.42226 | 14.55242 | 5684 ft | 236 kts | 86° |
| 2026-05-08 01:42 | 37.42413 | 14.57291 | 5543 ft | 235 kts | 86° |
| 2026-05-08 01:43 | 37.42597 | 14.59326 | 5410 ft | 234 kts | 86° |
| 2026-05-08 01:43 | 37.42777 | 14.61350 | 5265 ft | 232 kts | 87° |
| 2026-05-08 01:43 | 37.42956 | 14.63362 | 5156 ft | 230 kts | 86° |
| 2026-05-08 01:43 | 37.43131 | 14.65346 | 5075 ft | 222 kts | 86° |
| 2026-05-08 01:44 | 37.43296 | 14.67200 | 4978 ft | 208 kts | 87° |
| 2026-05-08 01:44 | 37.43455 | 14.68993 | 4814 ft | 205 kts | 87° |
| 2026-05-08 01:44 | 37.43618 | 14.70768 | 4674 ft | 204 kts | 86° |
| 2026-05-08 01:44 | 37.43784 | 14.72534 | 4541 ft | 202 kts | 86° |
| 2026-05-08 01:45 | 37.43941 | 14.74276 | 4409 ft | 200 kts | 86° |
| 2026-05-08 01:45 | 37.44094 | 14.76009 | 4294 ft | 199 kts | 87° |
| 2026-05-08 01:45 | 37.44242 | 14.77727 | 4173 ft | 197 kts | 87° |
| 2026-05-08 01:45 | 37.44387 | 14.79423 | 3958 ft | 196 kts | 86° |
| 2026-05-08 01:46 | 37.44531 | 14.81115 | 3736 ft | 193 kts | 86° |
| 2026-05-08 01:46 | 37.44672 | 14.82782 | 3494 ft | 190 kts | 86° |
| 2026-05-08 01:46 | 37.44810 | 14.84425 | 3261 ft | 187 kts | 86° |
| 2026-05-08 01:46 | 37.44945 | 14.86036 | 3021 ft | 184 kts | 86° |
| 2026-05-08 01:47 | 37.45079 | 14.87619 | 2808 ft | 180 kts | 85° |
| 2026-05-08 01:47 | 37.45211 | 14.89182 | 2565 ft | 178 kts | 85° |
| 2026-05-08 01:47 | 37.45340 | 14.90718 | 2328 ft | 176 kts | 84° |
| 2026-05-08 01:48 | 37.45594 | 14.93765 | 1866 ft | 175 kts | 83° |
| 2026-05-08 01:48 | 37.45722 | 14.95286 | 1644 ft | 172 kts | 83° |
| 2026-05-08 01:48 | 37.45846 | 14.96756 | 1407 ft | 166 kts | 83° |
| 2026-05-08 01:48 | 37.45965 | 14.98168 | 1187 ft | 157 kts | 83° |
| 2026-05-08 01:49 | 37.46078 | 14.99510 | 982 ft | 152 kts | 83° |
| 2026-05-08 01:49 | 37.46188 | 15.00824 | 765 ft | 149 kts | 83° |
| 2026-05-08 01:49 | 37.46297 | 15.02119 | 548 ft | 148 kts | 84° |
| 2026-05-08 01:49 | 37.46404 | 15.03404 | 369 ft | 147 kts | 83° |
| 2026-05-08 01:50 | 37.46508 | 15.04672 | 180 ft | 146 kts | 83° |
| 2026-05-08 01:50 | 37.46620 | 15.05937 | 41 ft | 140 kts | 83° |
| 2026-05-08 01:50 | 37.46680 | 15.06668 | 38 ft | 23 kts | 84° |
| 2026-05-08 01:50 | 37.46702 | 15.06876 | 39 ft | 20 kts | 68° |
| 2026-05-08 01:51 | 37.46777 | 15.06914 | 35 ft | 0 kts | 339° |
| 2026-05-08 01:51 | 37.46805 | 15.06900 | 35 ft | 8 kts | 338° |
| 2026-05-08 01:52 | 37.46853 | 15.06837 | 34 ft | 13 kts | 282° |
| 2026-05-08 01:52 | 37.46849 | 15.06705 | 34 ft | 17 kts | 264° |
| 2026-05-08 01:52 | 37.46845 | 15.06652 | 34 ft | 0 kts | 264° |
| 2026-05-08 01:53 | 37.46844 | 15.06640 | 34 ft | 4 kts | 264° |
| 2026-05-08 01:53 | 37.46867 | 15.06609 | 34 ft | 8 kts | 343° |
| 2026-05-08 01:53 | 37.46912 | 15.06619 | 34 ft | 3 kts | 14° |
| 2026-05-08 01:54 | 37.46918 | 15.06621 | 34 ft | 0 kts | 16° |